Decoded Metar for LEAG (Algeciras in SPAIN) (IATA:N/A) | Meteo·Mobile Aviation Weather
aviador You're here:

LEAG Decoded Metar

Algeciras in SPAIN
Report Time2018-12-18 17:00:00
UTC Time2018-12-18 17:26:54
Flight Rules vfr VFR
Wind070° at 05 kt
W.Rank070° ranks 1
Current wind is below 070° avg. (9.6)
Visibility9999 m
Phenomena:N/A
Clouds:Scattered 014 Hf
Expected CloudBase > 800 ft AGL from Temp-Dew spread
CeilingNone
Temp15°C
Dew Point13°C (88% RH)
AAT14.1°C
QNH1024 hPa
Raw Report
METAR LEAG 181700Z AUTO 07005KT 030V090 9999 SCT014 15/13 Q1024=

Extra information for LEAG:More info

Metar Taf Metar & Taf Last 4 Metars F.Rules Stats Wind Profile Meteogram Temp Stats Airport Information Weather charts Add Link Nearby VenuesMetar ALERT Operation Metar Decoded Social comments